sensor_id;sensor_type;location;lat;lon;timestamp;P1;durP1;ratioP1;P2;durP2;ratioP2
3941;SDS011;1985;48.592;8.850;2023-04-24T00:00:46;7.90;;;1.20;;
3941;SDS011;1985;48.592;8.850;2023-04-24T00:03:12;8.20;;;1.20;;
3941;SDS011;1985;48.592;8.850;2023-04-24T00:05:38;9.50;;;1.20;;
3941;SDS011;1985;48.592;8.850;2023-04-24T00:08:05;7.85;;;1.30;;
3941;SDS011;1985;48.592;8.850;2023-04-24T00:10:31;8.30;;;1.40;;
3941;SDS011;1985;48.592;8.850;2023-04-24T00:12:56;9.60;;;1.07;;
3941;SDS011;1985;48.592;8.850;2023-04-24T00:15:22;9.10;;;1.10;;
3941;SDS011;1985;48.592;8.850;2023-04-24T00:17:48;7.70;;;1.10;;
3941;SDS011;1985;48.592;8.850;2023-04-24T00:20:14;8.82;;;1.20;;
3941;SDS011;1985;48.592;8.850;2023-04-24T00:22:40;10.13;;;1.47;;
3941;SDS011;1985;48.592;8.850;2023-04-24T00:25:06;8.20;;;1.30;;
3941;SDS011;1985;48.592;8.850;2023-04-24T00:27:32;8.25;;;1.25;;
3941;SDS011;1985;48.592;8.850;2023-04-24T00:29:57;8.40;;;1.20;;
3941;SDS011;1985;48.592;8.850;2023-04-24T00:32:23;9.80;;;1.40;;
3941;SDS011;1985;48.592;8.850;2023-04-24T00:34:48;9.00;;;1.30;;
3941;SDS011;1985;48.592;8.850;2023-04-24T00:37:14;8.70;;;1.20;;
3941;SDS011;1985;48.592;8.850;2023-04-24T00:39:40;7.80;;;1.20;;
3941;SDS011;1985;48.592;8.850;2023-04-24T00:42:06;8.10;;;1.00;;
3941;SDS011;1985;48.592;8.850;2023-04-24T00:44:35;7.90;;;1.10;;
3941;SDS011;1985;48.592;8.850;2023-04-24T00:47:00;9.15;;;1.30;;
3941;SDS011;1985;48.592;8.850;2023-04-24T00:49:26;9.23;;;1.30;;
3941;SDS011;1985;48.592;8.850;2023-04-24T00:51:52;8.30;;;1.20;;
3941;SDS011;1985;48.592;8.850;2023-04-24T00:54:19;8.60;;;1.27;;
3941;SDS011;1985;48.592;8.850;2023-04-24T00:56:45;8.70;;;1.30;;
3941;SDS011;1985;48.592;8.850;2023-04-24T00:59:11;7.50;;;1.00;;
3941;SDS011;1985;48.592;8.850;2023-04-24T01:01:38;8.07;;;1.20;;
3941;SDS011;1985;48.592;8.850;2023-04-24T01:04:07;8.07;;;1.00;;
3941;SDS011;1985;48.592;8.850;2023-04-24T01:06:33;8.43;;;1.40;;
3941;SDS011;1985;48.592;8.850;2023-04-24T01:08:59;8.60;;;1.20;;
3941;SDS011;1985;48.592;8.850;2023-04-24T01:11:26;8.60;;;1.20;;
3941;SDS011;1985;48.592;8.850;2023-04-24T01:13:51;8.10;;;1.00;;
3941;SDS011;1985;48.592;8.850;2023-04-24T01:16:18;8.10;;;1.30;;
3941;SDS011;1985;48.592;8.850;2023-04-24T01:18:45;7.87;;;1.13;;
3941;SDS011;1985;48.592;8.850;2023-04-24T01:21:13;7.90;;;1.00;;
3941;SDS011;1985;48.592;8.850;2023-04-24T01:23:41;7.90;;;1.20;;
3941;SDS011;1985;48.592;8.850;2023-04-24T01:26:10;8.13;;;1.35;;
3941;SDS011;1985;48.592;8.850;2023-04-24T01:28:37;7.90;;;1.20;;
3941;SDS011;1985;48.592;8.850;2023-04-24T01:31:03;8.25;;;1.20;;
3941;SDS011;1985;48.592;8.850;2023-04-24T01:33:29;7.50;;;1.10;;
3941;SDS011;1985;48.592;8.850;2023-04-24T01:35:55;7.75;;;1.10;;
3941;SDS011;1985;48.592;8.850;2023-04-24T01:38:21;8.40;;;1.30;;
3941;SDS011;1985;48.592;8.850;2023-04-24T01:40:47;10.20;;;1.27;;
3941;SDS011;1985;48.592;8.850;2023-04-24T01:43:12;7.53;;;1.00;;
3941;SDS011;1985;48.592;8.850;2023-04-24T01:45:38;12.90;;;1.20;;
3941;SDS011;1985;48.592;8.850;2023-04-24T01:48:04;9.18;;;1.33;;
3941;SDS011;1985;48.592;8.850;2023-04-24T01:50:30;8.00;;;1.30;;
3941;SDS011;1985;48.592;8.850;2023-04-24T01:52:55;8.30;;;1.20;;
3941;SDS011;1985;48.592;8.850;2023-04-24T01:55:21;9.50;;;1.00;;
3941;SDS011;1985;48.592;8.850;2023-04-24T01:57:47;8.80;;;1.30;;
3941;SDS011;1985;48.592;8.850;2023-04-24T02:00:13;13.10;;;1.30;;
3941;SDS011;1985;48.592;8.850;2023-04-24T02:02:40;7.90;;;0.97;;
3941;SDS011;1985;48.592;8.850;2023-04-24T02:05:06;8.82;;;1.30;;
3941;SDS011;1985;48.592;8.850;2023-04-24T02:07:33;8.23;;;1.30;;
3941;SDS011;1985;48.592;8.850;2023-04-24T02:09:59;8.30;;;1.20;;
3941;SDS011;1985;48.592;8.850;2023-04-24T02:12:24;7.90;;;1.30;;
3941;SDS011;1985;48.592;8.850;2023-04-24T02:14:50;8.97;;;1.20;;
3941;SDS011;1985;48.592;8.850;2023-04-24T02:17:16;8.13;;;1.33;;
3941;SDS011;1985;48.592;8.850;2023-04-24T02:19:44;8.80;;;1.10;;
3941;SDS011;1985;48.592;8.850;2023-04-24T02:22:09;10.87;;;1.23;;
3941;SDS011;1985;48.592;8.850;2023-04-24T02:24:35;7.77;;;1.13;;
3941;SDS011;1985;48.592;8.850;2023-04-24T02:27:02;8.20;;;1.10;;
3941;SDS011;1985;48.592;8.850;2023-04-24T02:29:27;7.90;;;1.20;;
3941;SDS011;1985;48.592;8.850;2023-04-24T02:31:53;12.00;;;1.50;;
3941;SDS011;1985;48.592;8.850;2023-04-24T02:34:19;8.80;;;1.40;;
3941;SDS011;1985;48.592;8.850;2023-04-24T02:36:44;8.52;;;1.45;;
3941;SDS011;1985;48.592;8.850;2023-04-24T02:39:10;8.60;;;1.30;;
3941;SDS011;1985;48.592;8.850;2023-04-24T02:41:36;8.30;;;1.40;;
3941;SDS011;1985;48.592;8.850;2023-04-24T02:44:01;9.80;;;1.30;;
3941;SDS011;1985;48.592;8.850;2023-04-24T02:46:27;7.60;;;1.20;;
3941;SDS011;1985;48.592;8.850;2023-04-24T02:48:53;9.53;;;1.40;;
3941;SDS011;1985;48.592;8.850;2023-04-24T02:51:18;11.05;;;1.35;;
3941;SDS011;1985;48.592;8.850;2023-04-24T02:53:44;10.43;;;1.90;;
3941;SDS011;1985;48.592;8.850;2023-04-24T02:56:09;8.50;;;1.40;;
3941;SDS011;1985;48.592;8.850;2023-04-24T02:58:37;9.25;;;1.35;;
3941;SDS011;1985;48.592;8.850;2023-04-24T03:01:02;7.70;;;1.30;;
3941;SDS011;1985;48.592;8.850;2023-04-24T03:03:28;8.00;;;1.20;;
3941;SDS011;1985;48.592;8.850;2023-04-24T03:05:54;8.00;;;1.60;;
3941;SDS011;1985;48.592;8.850;2023-04-24T03:08:21;8.75;;;1.30;;
3941;SDS011;1985;48.592;8.850;2023-04-24T03:10:47;8.10;;;1.40;;
3941;SDS011;1985;48.592;8.850;2023-04-24T03:13:13;7.65;;;1.13;;
3941;SDS011;1985;48.592;8.850;2023-04-24T03:15:38;8.50;;;1.20;;
3941;SDS011;1985;48.592;8.850;2023-04-24T03:18:04;7.85;;;1.25;;
3941;SDS011;1985;48.592;8.850;2023-04-24T03:20:30;7.50;;;1.00;;
3941;SDS011;1985;48.592;8.850;2023-04-24T03:22:55;10.90;;;1.60;;
3941;SDS011;1985;48.592;8.850;2023-04-24T03:25:22;10.80;;;1.40;;
3941;SDS011;1985;48.592;8.850;2023-04-24T03:27:47;8.70;;;1.58;;
3941;SDS011;1985;48.592;8.850;2023-04-24T03:30:13;8.70;;;1.40;;
3941;SDS011;1985;48.592;8.850;2023-04-24T03:32:38;9.02;;;1.63;;
3941;SDS011;1985;48.592;8.850;2023-04-24T03:35:05;9.70;;;1.60;;
3941;SDS011;1985;48.592;8.850;2023-04-24T03:37:32;9.60;;;1.17;;
3941;SDS011;1985;48.592;8.850;2023-04-24T03:39:58;9.10;;;1.40;;
3941;SDS011;1985;48.592;8.850;2023-04-24T03:42:23;8.85;;;1.23;;
3941;SDS011;1985;48.592;8.850;2023-04-24T03:44:49;8.53;;;1.20;;
3941;SDS011;1985;48.592;8.850;2023-04-24T03:47:15;7.40;;;0.90;;
3941;SDS011;1985;48.592;8.850;2023-04-24T03:49:40;8.40;;;0.80;;
3941;SDS011;1985;48.592;8.850;2023-04-24T03:52:06;8.40;;;1.10;;
3941;SDS011;1985;48.592;8.850;2023-04-24T03:54:31;7.93;;;0.90;;
3941;SDS011;1985;48.592;8.850;2023-04-24T03:56:57;7.30;;;0.80;;
3941;SDS011;1985;48.592;8.850;2023-04-24T03:59:23;7.40;;;0.90;;
3941;SDS011;1985;48.592;8.850;2023-04-24T04:01:48;7.70;;;0.90;;
3941;SDS011;1985;48.592;8.850;2023-04-24T04:04:14;8.80;;;0.80;;
3941;SDS011;1985;48.592;8.850;2023-04-24T04:06:40;7.90;;;1.00;;
3941;SDS011;1985;48.592;8.850;2023-04-24T04:09:05;7.50;;;0.80;;
3941;SDS011;1985;48.592;8.850;2023-04-24T04:11:32;7.72;;;1.00;;
3941;SDS011;1985;48.592;8.850;2023-04-24T04:13:57;7.65;;;1.00;;
3941;SDS011;1985;48.592;8.850;2023-04-24T04:16:23;8.40;;;1.00;;
3941;SDS011;1985;48.592;8.850;2023-04-24T04:18:49;8.10;;;0.90;;
3941;SDS011;1985;48.592;8.850;2023-04-24T04:21:15;7.50;;;0.90;;
3941;SDS011;1985;48.592;8.850;2023-04-24T04:23:40;7.80;;;1.10;;
3941;SDS011;1985;48.592;8.850;2023-04-24T04:26:06;7.75;;;0.98;;
3941;SDS011;1985;48.592;8.850;2023-04-24T04:28:32;8.20;;;1.10;;
3941;SDS011;1985;48.592;8.850;2023-04-24T04:30:58;7.20;;;0.82;;
3941;SDS011;1985;48.592;8.850;2023-04-24T04:33:24;9.77;;;1.00;;
3941;SDS011;1985;48.592;8.850;2023-04-24T04:35:51;7.80;;;1.00;;
3941;SDS011;1985;48.592;8.850;2023-04-24T04:38:21;8.40;;;0.90;;
3941;SDS011;1985;48.592;8.850;2023-04-24T04:40:47;7.60;;;1.00;;
3941;SDS011;1985;48.592;8.850;2023-04-24T04:43:13;7.10;;;0.80;;
3941;SDS011;1985;48.592;8.850;2023-04-24T04:45:40;7.30;;;0.90;;
3941;SDS011;1985;48.592;8.850;2023-04-24T04:48:08;9.23;;;1.17;;
3941;SDS011;1985;48.592;8.850;2023-04-24T04:50:34;10.32;;;1.05;;
3941;SDS011;1985;48.592;8.850;2023-04-24T04:53:00;8.50;;;1.00;;
3941;SDS011;1985;48.592;8.850;2023-04-24T04:55:26;8.40;;;1.00;;
3941;SDS011;1985;48.592;8.850;2023-04-24T04:57:51;7.90;;;1.10;;
3941;SDS011;1985;48.592;8.850;2023-04-24T05:00:17;7.63;;;1.20;;
3941;SDS011;1985;48.592;8.850;2023-04-24T05:02:44;7.60;;;1.10;;
3941;SDS011;1985;48.592;8.850;2023-04-24T05:05:09;7.70;;;1.10;;
3941;SDS011;1985;48.592;8.850;2023-04-24T05:07:35;8.13;;;1.13;;
3941;SDS011;1985;48.592;8.850;2023-04-24T05:10:01;8.93;;;1.50;;
3941;SDS011;1985;48.592;8.850;2023-04-24T05:12:26;8.67;;;1.30;;
3941;SDS011;1985;48.592;8.850;2023-04-24T05:14:52;7.97;;;1.25;;
3941;SDS011;1985;48.592;8.850;2023-04-24T05:17:18;7.60;;;1.23;;
3941;SDS011;1985;48.592;8.850;2023-04-24T05:19:43;8.00;;;1.20;;
3941;SDS011;1985;48.592;8.850;2023-04-24T05:22:09;8.30;;;1.50;;
3941;SDS011;1985;48.592;8.850;2023-04-24T05:24:36;8.00;;;1.40;;
3941;SDS011;1985;48.592;8.850;2023-04-24T05:27:02;8.20;;;1.40;;
3941;SDS011;1985;48.592;8.850;2023-04-24T05:29:29;8.40;;;1.60;;
3941;SDS011;1985;48.592;8.850;2023-04-24T05:31:58;8.18;;;1.42;;
3941;SDS011;1985;48.592;8.850;2023-04-24T05:34:25;8.10;;;1.50;;
3941;SDS011;1985;48.592;8.850;2023-04-24T05:36:51;9.80;;;1.47;;
3941;SDS011;1985;48.592;8.850;2023-04-24T05:39:17;9.63;;;1.53;;
3941;SDS011;1985;48.592;8.850;2023-04-24T05:41:42;7.90;;;1.50;;
3941;SDS011;1985;48.592;8.850;2023-04-24T05:44:08;8.40;;;1.40;;
3941;SDS011;1985;48.592;8.850;2023-04-24T05:46:34;8.43;;;1.80;;
3941;SDS011;1985;48.592;8.850;2023-04-24T05:49:00;9.00;;;1.50;;
3941;SDS011;1985;48.592;8.850;2023-04-24T05:51:27;8.40;;;1.30;;
3941;SDS011;1985;48.592;8.850;2023-04-24T05:53:52;8.80;;;1.40;;
3941;SDS011;1985;48.592;8.850;2023-04-24T05:56:18;8.60;;;1.70;;
3941;SDS011;1985;48.592;8.850;2023-04-24T05:58:44;8.60;;;1.30;;
3941;SDS011;1985;48.592;8.850;2023-04-24T06:01:10;8.63;;;1.80;;
3941;SDS011;1985;48.592;8.850;2023-04-24T06:03:37;11.32;;;2.10;;
3941;SDS011;1985;48.592;8.850;2023-04-24T06:06:03;8.87;;;1.70;;
3941;SDS011;1985;48.592;8.850;2023-04-24T06:08:29;10.40;;;1.60;;
3941;SDS011;1985;48.592;8.850;2023-04-24T06:10:55;9.48;;;1.98;;
3941;SDS011;1985;48.592;8.850;2023-04-24T06:13:20;8.80;;;1.60;;
3941;SDS011;1985;48.592;8.850;2023-04-24T06:15:46;8.73;;;1.50;;
3941;SDS011;1985;48.592;8.850;2023-04-24T06:18:11;8.20;;;1.43;;
3941;SDS011;1985;48.592;8.850;2023-04-24T06:20:37;9.20;;;2.10;;
3941;SDS011;1985;48.592;8.850;2023-04-24T06:23:03;8.55;;;1.60;;
3941;SDS011;1985;48.592;8.850;2023-04-24T06:25:29;11.00;;;1.83;;
3941;SDS011;1985;48.592;8.850;2023-04-24T06:27:54;8.20;;;1.63;;
3941;SDS011;1985;48.592;8.850;2023-04-24T06:30:20;8.98;;;1.52;;
3941;SDS011;1985;48.592;8.850;2023-04-24T06:32:46;9.20;;;1.50;;
3941;SDS011;1985;48.592;8.850;2023-04-24T06:35:12;11.35;;;1.42;;
3941;SDS011;1985;48.592;8.850;2023-04-24T06:37:41;9.50;;;2.00;;
3941;SDS011;1985;48.592;8.850;2023-04-24T06:40:07;8.40;;;1.48;;
3941;SDS011;1985;48.592;8.850;2023-04-24T06:42:33;8.50;;;1.60;;
3941;SDS011;1985;48.592;8.850;2023-04-24T06:45:00;8.30;;;1.50;;
3941;SDS011;1985;48.592;8.850;2023-04-24T06:47:26;8.55;;;1.60;;
3941;SDS011;1985;48.592;8.850;2023-04-24T06:49:51;8.20;;;1.60;;
3941;SDS011;1985;48.592;8.850;2023-04-24T06:52:18;8.30;;;1.50;;
3941;SDS011;1985;48.592;8.850;2023-04-24T06:54:43;14.00;;;2.00;;
3941;SDS011;1985;48.592;8.850;2023-04-24T06:57:09;9.80;;;1.70;;
3941;SDS011;1985;48.592;8.850;2023-04-24T06:59:35;8.60;;;1.60;;
3941;SDS011;1985;48.592;8.850;2023-04-24T07:02:01;8.10;;;1.37;;
3941;SDS011;1985;48.592;8.850;2023-04-24T07:04:27;8.00;;;1.40;;
3941;SDS011;1985;48.592;8.850;2023-04-24T07:06:53;8.60;;;1.37;;
3941;SDS011;1985;48.592;8.850;2023-04-24T07:09:20;7.80;;;1.50;;
3941;SDS011;1985;48.592;8.850;2023-04-24T07:11:47;8.60;;;1.13;;
3941;SDS011;1985;48.592;8.850;2023-04-24T07:14:13;7.97;;;1.30;;
3941;SDS011;1985;48.592;8.850;2023-04-24T07:16:39;8.80;;;1.20;;
3941;SDS011;1985;48.592;8.850;2023-04-24T07:19:04;8.00;;;1.10;;
3941;SDS011;1985;48.592;8.850;2023-04-24T07:21:30;7.73;;;1.30;;
3941;SDS011;1985;48.592;8.850;2023-04-24T07:23:57;7.50;;;1.17;;
3941;SDS011;1985;48.592;8.850;2023-04-24T07:26:26;8.50;;;1.13;;
3941;SDS011;1985;48.592;8.850;2023-04-24T07:28:53;8.30;;;1.40;;
3941;SDS011;1985;48.592;8.850;2023-04-24T07:31:18;8.83;;;1.40;;
3941;SDS011;1985;48.592;8.850;2023-04-24T07:33:44;7.60;;;1.20;;
3941;SDS011;1985;48.592;8.850;2023-04-24T07:36:10;7.67;;;1.17;;
3941;SDS011;1985;48.592;8.850;2023-04-24T07:38:40;9.00;;;1.37;;
3941;SDS011;1985;48.592;8.850;2023-04-24T07:41:07;7.72;;;1.30;;
3941;SDS011;1985;48.592;8.850;2023-04-24T07:43:32;8.20;;;1.40;;
3941;SDS011;1985;48.592;8.850;2023-04-24T07:45:58;8.70;;;1.70;;
3941;SDS011;1985;48.592;8.850;2023-04-24T07:48:24;7.63;;;1.40;;
3941;SDS011;1985;48.592;8.850;2023-04-24T07:50:51;7.60;;;1.30;;
3941;SDS011;1985;48.592;8.850;2023-04-24T07:53:17;8.00;;;1.50;;
3941;SDS011;1985;48.592;8.850;2023-04-24T07:55:43;9.87;;;1.50;;
3941;SDS011;1985;48.592;8.850;2023-04-24T07:58:08;11.10;;;1.45;;
3941;SDS011;1985;48.592;8.850;2023-04-24T08:00:34;8.10;;;1.30;;
3941;SDS011;1985;48.592;8.850;2023-04-24T08:03:00;7.97;;;1.45;;
3941;SDS011;1985;48.592;8.850;2023-04-24T08:05:26;8.40;;;1.50;;
3941;SDS011;1985;48.592;8.850;2023-04-24T08:07:53;7.53;;;1.20;;
3941;SDS011;1985;48.592;8.850;2023-04-24T08:10:20;8.05;;;1.60;;
3941;SDS011;1985;48.592;8.850;2023-04-24T08:12:47;10.50;;;1.73;;
3941;SDS011;1985;48.592;8.850;2023-04-24T08:15:12;9.77;;;1.50;;
3941;SDS011;1985;48.592;8.850;2023-04-24T08:17:38;10.20;;;1.70;;
3941;SDS011;1985;48.592;8.850;2023-04-24T08:20:04;8.73;;;1.70;;
3941;SDS011;1985;48.592;8.850;2023-04-24T08:22:31;9.37;;;1.60;;
3941;SDS011;1985;48.592;8.850;2023-04-24T08:24:57;9.00;;;2.20;;
3941;SDS011;1985;48.592;8.850;2023-04-24T08:27:25;8.80;;;1.42;;
3941;SDS011;1985;48.592;8.850;2023-04-24T08:29:52;11.93;;;1.50;;
3941;SDS011;1985;48.592;8.850;2023-04-24T08:32:18;8.20;;;1.50;;
3941;SDS011;1985;48.592;8.850;2023-04-24T08:34:44;8.70;;;1.80;;
3941;SDS011;1985;48.592;8.850;2023-04-24T08:37:09;8.20;;;1.40;;
3941;SDS011;1985;48.592;8.850;2023-04-24T08:39:35;8.50;;;1.60;;
3941;SDS011;1985;48.592;8.850;2023-04-24T08:42:01;9.15;;;1.90;;
3941;SDS011;1985;48.592;8.850;2023-04-24T08:44:32;9.20;;;1.70;;
3941;SDS011;1985;48.592;8.850;2023-04-24T08:46:59;8.80;;;1.70;;
3941;SDS011;1985;48.592;8.850;2023-04-24T08:49:26;9.00;;;1.70;;
3941;SDS011;1985;48.592;8.850;2023-04-24T08:51:53;9.63;;;1.73;;
3941;SDS011;1985;48.592;8.850;2023-04-24T08:54:19;10.45;;;1.70;;
3941;SDS011;1985;48.592;8.850;2023-04-24T08:56:46;8.50;;;1.50;;
3941;SDS011;1985;48.592;8.850;2023-04-24T08:59:13;8.98;;;1.85;;
3941;SDS011;1985;48.592;8.850;2023-04-24T09:01:40;8.33;;;1.50;;
3941;SDS011;1985;48.592;8.850;2023-04-24T09:04:07;7.75;;;1.40;;
3941;SDS011;1985;48.592;8.850;2023-04-24T09:06:35;10.05;;;1.60;;
3941;SDS011;1985;48.592;8.850;2023-04-24T09:09:01;7.88;;;1.33;;
3941;SDS011;1985;48.592;8.850;2023-04-24T09:11:30;8.65;;;1.40;;
3941;SDS011;1985;48.592;8.850;2023-04-24T09:13:57;8.85;;;1.70;;
3941;SDS011;1985;48.592;8.850;2023-04-24T09:16:24;8.43;;;1.33;;
3941;SDS011;1985;48.592;8.850;2023-04-24T09:18:51;8.70;;;1.40;;
3941;SDS011;1985;48.592;8.850;2023-04-24T09:21:16;7.90;;;1.20;;
3941;SDS011;1985;48.592;8.850;2023-04-24T09:23:42;7.87;;;1.53;;
3941;SDS011;1985;48.592;8.850;2023-04-24T09:26:08;8.13;;;1.30;;
3941;SDS011;1985;48.592;8.850;2023-04-24T09:28:36;11.30;;;1.30;;
3941;SDS011;1985;48.592;8.850;2023-04-24T09:33:37;9.50;;;1.63;;
3941;SDS011;1985;48.592;8.850;2023-04-24T09:36:04;10.10;;;1.33;;
3941;SDS011;1985;48.592;8.850;2023-04-24T09:38:35;8.23;;;1.10;;
3941;SDS011;1985;48.592;8.850;2023-04-24T09:41:02;7.82;;;1.30;;
3941;SDS011;1985;48.592;8.850;2023-04-24T09:43:29;9.35;;;1.27;;
3941;SDS011;1985;48.592;8.850;2023-04-24T09:45:55;7.63;;;1.10;;
3941;SDS011;1985;48.592;8.850;2023-04-24T09:48:32;7.65;;;1.00;;
3941;SDS011;1985;48.592;8.850;2023-04-24T09:51:00;9.88;;;1.10;;
3941;SDS011;1985;48.592;8.850;2023-04-24T09:53:27;8.70;;;1.30;;
3941;SDS011;1985;48.592;8.850;2023-04-24T09:55:52;8.70;;;1.30;;
3941;SDS011;1985;48.592;8.850;2023-04-24T09:58:18;8.57;;;1.40;;
3941;SDS011;1985;48.592;8.850;2023-04-24T10:00:53;7.97;;;1.15;;
3941;SDS011;1985;48.592;8.850;2023-04-24T10:03:20;9.05;;;1.30;;
3941;SDS011;1985;48.592;8.850;2023-04-24T10:05:46;8.80;;;1.30;;
3941;SDS011;1985;48.592;8.850;2023-04-24T10:08:12;7.70;;;1.20;;
3941;SDS011;1985;48.592;8.850;2023-04-24T10:10:39;10.70;;;1.63;;
3941;SDS011;1985;48.592;8.850;2023-04-24T10:13:07;8.02;;;1.13;;
3941;SDS011;1985;48.592;8.850;2023-04-24T10:15:35;11.10;;;1.50;;
3941;SDS011;1985;48.592;8.850;2023-04-24T10:18:05;8.38;;;1.38;;
3941;SDS011;1985;48.592;8.850;2023-04-24T10:20:32;8.80;;;1.30;;
3941;SDS011;1985;48.592;8.850;2023-04-24T10:22:59;7.50;;;1.20;;
3941;SDS011;1985;48.592;8.850;2023-04-24T10:25:26;7.85;;;1.40;;
3941;SDS011;1985;48.592;8.850;2023-04-24T10:27:53;9.07;;;1.33;;
3941;SDS011;1985;48.592;8.850;2023-04-24T10:30:24;10.00;;;1.60;;
3941;SDS011;1985;48.592;8.850;2023-04-24T10:32:51;8.80;;;1.50;;
3941;SDS011;1985;48.592;8.850;2023-04-24T10:35:17;9.50;;;1.38;;
3941;SDS011;1985;48.592;8.850;2023-04-24T10:37:50;8.00;;;1.20;;
3941;SDS011;1985;48.592;8.850;2023-04-24T10:40:30;7.90;;;1.23;;
3941;SDS011;1985;48.592;8.850;2023-04-24T10:42:58;7.53;;;1.20;;
3941;SDS011;1985;48.592;8.850;2023-04-24T10:45:24;7.57;;;1.30;;
3941;SDS011;1985;48.592;8.850;2023-04-24T10:48:01;8.52;;;1.30;;
3941;SDS011;1985;48.592;8.850;2023-04-24T10:50:30;9.60;;;1.40;;
3941;SDS011;1985;48.592;8.850;2023-04-24T10:53:15;9.13;;;1.30;;
3941;SDS011;1985;48.592;8.850;2023-04-24T10:55:48;8.03;;;1.50;;
3941;SDS011;1985;48.592;8.850;2023-04-24T10:58:16;8.07;;;1.10;;
3941;SDS011;1985;48.592;8.850;2023-04-24T11:01:00;8.23;;;1.40;;
3941;SDS011;1985;48.592;8.850;2023-04-24T11:08:32;11.00;;;1.80;;
3941;SDS011;1985;48.592;8.850;2023-04-24T11:11:03;9.82;;;1.40;;
3941;SDS011;1985;48.592;8.850;2023-04-24T11:18:51;8.80;;;1.20;;
3941;SDS011;1985;48.592;8.850;2023-04-24T11:21:25;7.50;;;1.08;;
3941;SDS011;1985;48.592;8.850;2023-04-24T11:23:51;8.90;;;1.00;;
3941;SDS011;1985;48.592;8.850;2023-04-24T11:26:23;7.40;;;0.93;;
3941;SDS011;1985;48.592;8.850;2023-04-24T11:28:55;8.18;;;1.33;;
3941;SDS011;1985;48.592;8.850;2023-04-24T11:31:38;7.50;;;1.20;;
3941;SDS011;1985;48.592;8.850;2023-04-24T11:34:07;8.32;;;1.20;;
3941;SDS011;1985;48.592;8.850;2023-04-24T11:36:34;8.57;;;1.20;;
3941;SDS011;1985;48.592;8.850;2023-04-24T11:39:00;7.90;;;1.10;;
3941;SDS011;1985;48.592;8.850;2023-04-24T11:41:27;8.00;;;1.23;;
3941;SDS011;1985;48.592;8.850;2023-04-24T11:43:53;7.95;;;1.10;;
3941;SDS011;1985;48.592;8.850;2023-04-24T11:46:26;10.10;;;1.20;;
3941;SDS011;1985;48.592;8.850;2023-04-24T11:48:56;7.60;;;1.10;;
3941;SDS011;1985;48.592;8.850;2023-04-24T11:51:24;8.30;;;1.80;;
3941;SDS011;1985;48.592;8.850;2023-04-24T11:53:51;7.43;;;1.13;;
3941;SDS011;1985;48.592;8.850;2023-04-24T11:56:21;8.80;;;1.77;;
3941;SDS011;1985;48.592;8.850;2023-04-24T11:58:47;9.73;;;1.40;;
3941;SDS011;1985;48.592;8.850;2023-04-24T12:01:13;7.70;;;1.30;;
3941;SDS011;1985;48.592;8.850;2023-04-24T12:03:39;8.33;;;1.30;;
3941;SDS011;1985;48.592;8.850;2023-04-24T12:06:08;8.10;;;1.50;;
3941;SDS011;1985;48.592;8.850;2023-04-24T12:08:35;9.90;;;1.40;;
3941;SDS011;1985;48.592;8.850;2023-04-24T12:11:04;7.80;;;1.40;;
3941;SDS011;1985;48.592;8.850;2023-04-24T12:13:34;8.63;;;1.52;;
3941;SDS011;1985;48.592;8.850;2023-04-24T12:16:04;8.30;;;1.33;;
3941;SDS011;1985;48.592;8.850;2023-04-24T12:18:30;8.55;;;1.30;;
3941;SDS011;1985;48.592;8.850;2023-04-24T12:21:14;8.40;;;1.50;;
3941;SDS011;1985;48.592;8.850;2023-04-24T12:23:44;9.70;;;1.50;;
3941;SDS011;1985;48.592;8.850;2023-04-24T12:26:16;7.85;;;1.20;;
3941;SDS011;1985;48.592;8.850;2023-04-24T12:28:46;9.20;;;1.50;;
3941;SDS011;1985;48.592;8.850;2023-04-24T12:31:14;7.83;;;1.40;;
3941;SDS011;1985;48.592;8.850;2023-04-24T12:33:41;7.87;;;1.30;;
3941;SDS011;1985;48.592;8.850;2023-04-24T12:36:09;10.65;;;1.50;;
3941;SDS011;1985;48.592;8.850;2023-04-24T12:38:37;7.70;;;1.35;;
3941;SDS011;1985;48.592;8.850;2023-04-24T12:41:07;10.20;;;1.40;;
3941;SDS011;1985;48.592;8.850;2023-04-24T12:43:34;8.82;;;1.75;;
3941;SDS011;1985;48.592;8.850;2023-04-24T12:46:00;8.63;;;1.65;;
3941;SDS011;1985;48.592;8.850;2023-04-24T12:48:26;7.60;;;1.30;;
3941;SDS011;1985;48.592;8.850;2023-04-24T12:50:52;8.30;;;1.40;;
3941;SDS011;1985;48.592;8.850;2023-04-24T12:53:18;8.00;;;1.60;;
3941;SDS011;1985;48.592;8.850;2023-04-24T12:55:44;9.73;;;1.93;;
3941;SDS011;1985;48.592;8.850;2023-04-24T12:58:11;8.27;;;1.90;;
3941;SDS011;1985;48.592;8.850;2023-04-24T13:00:38;7.97;;;1.30;;
3941;SDS011;1985;48.592;8.850;2023-04-24T13:03:04;7.80;;;1.52;;
3941;SDS011;1985;48.592;8.850;2023-04-24T13:05:30;11.60;;;1.90;;
3941;SDS011;1985;48.592;8.850;2023-04-24T13:07:55;8.30;;;1.50;;
3941;SDS011;1985;48.592;8.850;2023-04-24T13:10:22;9.65;;;1.90;;
3941;SDS011;1985;48.592;8.850;2023-04-24T13:12:47;9.40;;;1.90;;
3941;SDS011;1985;48.592;8.850;2023-04-24T13:15:13;8.35;;;1.50;;
3941;SDS011;1985;48.592;8.850;2023-04-24T13:17:39;8.80;;;1.60;;
3941;SDS011;1985;48.592;8.850;2023-04-24T13:20:05;9.63;;;1.70;;
3941;SDS011;1985;48.592;8.850;2023-04-24T13:22:31;10.23;;;1.90;;
3941;SDS011;1985;48.592;8.850;2023-04-24T13:24:57;7.80;;;1.50;;
3941;SDS011;1985;48.592;8.850;2023-04-24T13:27:22;8.60;;;1.50;;
3941;SDS011;1985;48.592;8.850;2023-04-24T13:29:48;10.02;;;1.80;;
3941;SDS011;1985;48.592;8.850;2023-04-24T13:32:13;8.60;;;1.80;;
3941;SDS011;1985;48.592;8.850;2023-04-24T13:34:39;10.05;;;1.70;;
3941;SDS011;1985;48.592;8.850;2023-04-24T13:37:05;9.20;;;1.40;;
3941;SDS011;1985;48.592;8.850;2023-04-24T13:39:31;8.25;;;1.50;;
3941;SDS011;1985;48.592;8.850;2023-04-24T13:41:57;8.50;;;1.80;;
3941;SDS011;1985;48.592;8.850;2023-04-24T13:44:23;9.95;;;1.50;;
3941;SDS011;1985;48.592;8.850;2023-04-24T13:46:50;8.60;;;1.70;;
3941;SDS011;1985;48.592;8.850;2023-04-24T13:49:19;8.80;;;1.50;;
3941;SDS011;1985;48.592;8.850;2023-04-24T13:51:46;10.90;;;1.63;;
3941;SDS011;1985;48.592;8.850;2023-04-24T13:54:11;9.48;;;1.80;;
3941;SDS011;1985;48.592;8.850;2023-04-24T13:56:38;10.30;;;1.97;;
3941;SDS011;1985;48.592;8.850;2023-04-24T13:59:04;7.95;;;1.60;;
3941;SDS011;1985;48.592;8.850;2023-04-24T14:01:30;8.70;;;1.80;;
3941;SDS011;1985;48.592;8.850;2023-04-24T14:03:56;9.68;;;2.05;;
3941;SDS011;1985;48.592;8.850;2023-04-24T14:06:22;9.13;;;1.60;;
3941;SDS011;1985;48.592;8.850;2023-04-24T14:08:48;9.57;;;1.70;;
3941;SDS011;1985;48.592;8.850;2023-04-24T14:11:15;8.32;;;1.60;;
3941;SDS011;1985;48.592;8.850;2023-04-24T14:13:41;9.57;;;1.83;;
3941;SDS011;1985;48.592;8.850;2023-04-24T14:16:08;8.20;;;1.63;;
3941;SDS011;1985;48.592;8.850;2023-04-24T14:18:34;9.00;;;1.70;;
3941;SDS011;1985;48.592;8.850;2023-04-24T14:21:01;10.20;;;1.67;;
3941;SDS011;1985;48.592;8.850;2023-04-24T14:23:27;7.70;;;1.30;;
3941;SDS011;1985;48.592;8.850;2023-04-24T14:25:53;8.07;;;1.50;;
3941;SDS011;1985;48.592;8.850;2023-04-24T14:28:19;8.82;;;1.60;;
3941;SDS011;1985;48.592;8.850;2023-04-24T14:30:45;7.85;;;1.20;;
3941;SDS011;1985;48.592;8.850;2023-04-24T14:33:11;8.77;;;1.80;;
3941;SDS011;1985;48.592;8.850;2023-04-24T14:35:37;8.10;;;1.60;;
3941;SDS011;1985;48.592;8.850;2023-04-24T14:38:03;8.57;;;1.77;;
3941;SDS011;1985;48.592;8.850;2023-04-24T14:40:29;10.55;;;1.85;;
3941;SDS011;1985;48.592;8.850;2023-04-24T14:42:56;9.50;;;1.60;;
3941;SDS011;1985;48.592;8.850;2023-04-24T14:45:22;9.30;;;1.70;;
3941;SDS011;1985;48.592;8.850;2023-04-24T14:47:48;8.18;;;1.70;;
3941;SDS011;1985;48.592;8.850;2023-04-24T14:50:14;8.10;;;1.60;;
3941;SDS011;1985;48.592;8.850;2023-04-24T14:52:40;9.20;;;1.95;;
3941;SDS011;1985;48.592;8.850;2023-04-24T14:55:05;10.67;;;1.40;;
3941;SDS011;1985;48.592;8.850;2023-04-24T14:57:32;9.00;;;1.60;;
3941;SDS011;1985;48.592;8.850;2023-04-24T14:59:58;9.77;;;1.70;;
3941;SDS011;1985;48.592;8.850;2023-04-24T15:02:23;9.98;;;1.75;;
3941;SDS011;1985;48.592;8.850;2023-04-24T15:04:49;9.40;;;1.80;;
3941;SDS011;1985;48.592;8.850;2023-04-24T15:07:15;9.82;;;1.90;;
3941;SDS011;1985;48.592;8.850;2023-04-24T15:09:40;9.90;;;1.80;;
3941;SDS011;1985;48.592;8.850;2023-04-24T15:12:06;8.73;;;1.90;;
3941;SDS011;1985;48.592;8.850;2023-04-24T15:14:31;8.30;;;1.50;;
3941;SDS011;1985;48.592;8.850;2023-04-24T15:16:57;8.80;;;1.60;;
3941;SDS011;1985;48.592;8.850;2023-04-24T15:19:23;8.20;;;1.50;;
3941;SDS011;1985;48.592;8.850;2023-04-24T15:21:48;10.02;;;1.60;;
3941;SDS011;1985;48.592;8.850;2023-04-24T15:24:14;8.20;;;1.50;;